Flight Track Log - Related Links

Times and Time Zones

All times are in EDT time to prevent confusion due to time zone crossing. See the AWI4029 flight status page for this flight to view local times or setup timezone preferences in your user account.

Time Position Orientation Groundspeed Altitude Reporting Facility
EDT Latitude Longitude Course Direction KTS MPH feet Rate Location/Type
Tue 01:30:40 PM 43.9869 -76.0497 227° Southwest 158 182 1,500  Level Boston Center
Tue 01:31:17 PM 43.9692 -76.0761 227° Southwest 176 203 3,100 2,289 Climbing Boston Center
Tue 01:32:17 PM 43.9169 -76.0856 187° South 224 258 5,200 2,371 Climbing Boston Center
Tue 01:33:21 PM 43.8417 -76.0961 186° South 249 287 8,000 2,516 Climbing Boston Center
Tue 01:34:21 PM 43.7628 -76.1106 188° South 267 307 10,400 2,479 Climbing Boston Center
Tue 01:35:22 PM 43.6750 -76.1239 186° South 297 342 13,000 2,410 Climbing Boston Center
Tue 01:36:23 PM 43.5872 -76.1389 187° South 313 360 15,300 1,984 Climbing Boston Center
Tue 01:37:26 PM 43.4961 -76.1536 187° South 325 374 17,100 1,548 Climbing Boston Center
Tue 01:38:27 PM 43.4017 -76.1678 186° South 334 384 18,500 1,488 Climbing Boston Center
Tue 01:39:27 PM 43.3036 -76.1831 186° South 348 400 20,100 1,597 Climbing Boston Center
Tue 01:40:31 PM 43.1836 -76.2019 187° South 359 413 21,800 1,392 Climbing Boston Center
Tue 01:41:32 PM 43.0767 -76.1994 179° South 382 440 23,000 1,091 Climbing Boston Center
Tue 01:42:32 PM 42.9733 -76.1922 177° South 376 433 24,000 496 Climbing Boston Center
Tue 01:43:33 PM 42.8664 -76.1856 177° South 382 440 24,000 -571 Level Boston Center
Tue 01:44:38 PM 42.7597 -76.1778 177° South 382 440 22,800 -1,152 Descending Boston Center
Tue 01:45:38 PM 42.6531 -76.1714 177° South 382 440 21,600 -1,200 Descending Boston Center
Tue 01:46:38 PM 42.5422 -76.1636 177° South 396 456 20,400 -1,258 Descending Boston Center
Tue 01:47:42 PM 42.4150 -76.1544 177° South 397 457 19,000 -1,161 Descending Boston Center
Tue 01:48:42 PM 42.3044 -76.1475 177° South 397 457 18,000 -750 Descending Boston Center
Tue 01:49:50 PM 42.1769 -76.1378 177° South 400 460 17,400 -891 Descending New York Center
Tue 01:50:50 PM 42.0728 -76.0931 162° South 395 455 16,100 -1,250 Descending New York Center
Tue 01:51:50 PM 41.9725 -76.0489 162° South 389 448 14,900 -1,250 Descending New York Center
Tue 01:52:50 PM 41.8850 -76.0028 159° South 384 442 13,600 -1,300 Descending New York Center
Tue 01:53:50 PM 41.7894 -75.9536 159° South 376 433 12,300 -1,300 Descending New York Center
Tue 01:54:50 PM 41.6856 -75.9011 159° South 371 427 11,000 -650 Descending New York Center
Tue 01:55:50 PM 41.5878 -75.8519 159° South 371 427 11,000  Level New York Center
Tue 01:56:50 PM 41.5042 -75.8069 158° South 365 420 11,000  Level New York Center
Tue 01:57:50 PM 41.4206 -75.7647 159° South 350 403 11,000  Level New York Center
Tue 01:58:50 PM 41.3342 -75.7417 169° South 330 380 11,000  Level New York Center
Tue 01:59:50 PM 41.2375 -75.7594 188° South 309 356 11,000  Level New York Center
Tue 02:00:50 PM 41.1558 -75.7697 185° South 309 356 11,000  Level New York Center
Tue 02:01:50 PM 41.0803 -75.7836 188° South 314 361 11,000  Level New York Center
Tue 02:02:50 PM 40.9858 -75.8014 188° South 314 361 11,000  Level New York Center
Tue 02:03:50 PM 40.9083 -75.8094 184° South 314 361 11,000 -200 Level New York Center
Tue 02:04:50 PM 40.8233 -75.7508 152° Southeast 303 349 10,600 -500 Descending New York Center
Tue 02:05:50 PM 40.7508 -75.6908 148° Southeast 308 354 10,000 -300 Descending New York Center
Tue 02:06:50 PM 40.6764 -75.6253 146° Southeast 314 361 10,000  Level New York Center
Tue 02:07:50 PM 40.6081 -75.5658 147° Southeast 319 367 10,000  Level New York Center
Tue 02:08:50 PM 40.5353 -75.5061 148° Southeast 313 360 10,000 -50 Level New York Center
Tue 02:09:50 PM 40.4547 -75.4378 147° Southeast 313 360 9,900 -950 Descending New York Center
Tue 02:10:50 PM 40.3728 -75.4022 162° South 306 352 8,100 -1,800 Descending New York Center
Tue 02:11:50 PM 40.3028 -75.3811 167° South 295 339 6,300 -1,650 Descending New York Center
Tue 02:12:50 PM 40.2403 -75.3256 146° Southeast 282 325 4,800 -1,150 Descending New York Center
Tue 02:13:50 PM 40.1756 -75.2722 148° Southeast 257 296 4,000 -400 Descending New York Center
Tue 02:14:50 PM 40.1203 -75.2469 161° South 220 253 4,000  Level New York Center
Tue 02:15:50 PM 40.0669 -75.2219 160° South 210 242 4,000  Level New York Center
Tue 02:16:50 PM 40.0178 -75.1997 161° South 205 236 4,000  Level New York Center
Tue 02:17:50 PM 39.9583 -75.1742 162° South 205 236 4,000  Level New York Center
Tue 02:18:50 PM 39.9069 -75.1522 162° South 205 236 4,000 -100 Level New York Center
Tue 02:19:50 PM 39.8456 -75.1211 159° South 205 236 3,800 -600 Descending New York Center
Tue 02:20:50 PM 39.8006 -75.1022 162° South 199 229 2,800 -850 Descending New York Center
Tue 02:21:57 PM 39.7833 -75.1667 251° West 170 196 2,000 -682 Descending Philadelphia TRACON
Tue 02:23:02 PM 39.8167 -75.2000 322° Northwest 162 186 1,300 -800 Descending Philadelphia TRACON
Tue 02:23:57 PM 39.8500 -75.2167 339° North 141 162 400 -982 Descending Philadelphia TRACON

Login

Don't have an account? Register now (free) for customized features, flight alerts, and more!